sensor_id;sensor_type;location;lat;lon;timestamp;P1;P2;P0
70915;PMS5003;58557;50.982;-3.222;2022-09-21T00:01:25;34;32;
70915;PMS5003;58557;50.982;-3.222;2022-09-21T00:03:51;36;33;
70915;PMS5003;58557;50.982;-3.222;2022-09-21T00:06:16;31;29;
70915;PMS5003;58557;50.982;-3.222;2022-09-21T00:08:43;29;29;
70915;PMS5003;58557;50.982;-3.222;2022-09-21T00:11:12;28;26;
70915;PMS5003;58557;50.982;-3.222;2022-09-21T00:13:37;34;32;
70915;PMS5003;58557;50.982;-3.222;2022-09-21T00:16:04;38;33;
70915;PMS5003;58557;50.982;-3.222;2022-09-21T00:18:23;37;35;
70915;PMS5003;58557;50.982;-3.222;2022-09-21T00:20:51;35;29;
70915;PMS5003;58557;50.982;-3.222;2022-09-21T00:23:14;30;29;
70915;PMS5003;58557;50.982;-3.222;2022-09-21T00:25:39;35;34;
70915;PMS5003;58557;50.982;-3.222;2022-09-21T00:28:05;33;31;
70915;PMS5003;58557;50.982;-3.222;2022-09-21T00:30:30;29;28;
70915;PMS5003;58557;50.982;-3.222;2022-09-21T00:32:56;31;28;
70915;PMS5003;58557;50.982;-3.222;2022-09-21T00:35:21;33;32;
70915;PMS5003;58557;50.982;-3.222;2022-09-21T00:37:47;26;25;
70915;PMS5003;58557;50.982;-3.222;2022-09-21T00:40:12;29;28;
70915;PMS5003;58557;50.982;-3.222;2022-09-21T00:42:37;31;31;
70915;PMS5003;58557;50.982;-3.222;2022-09-21T00:45:09;31;31;
70915;PMS5003;58557;50.982;-3.222;2022-09-21T00:47:30;27;27;
70915;PMS5003;58557;50.982;-3.222;2022-09-21T00:49:55;28;26;
70915;PMS5003;58557;50.982;-3.222;2022-09-21T00:52:20;25;22;
70915;PMS5003;58557;50.982;-3.222;2022-09-21T00:54:47;30;29;
70915;PMS5003;58557;50.982;-3.222;2022-09-21T00:57:16;33;29;
70915;PMS5003;58557;50.982;-3.222;2022-09-21T00:59:36;33;29;
70915;PMS5003;58557;50.982;-3.222;2022-09-21T01:02:06;32;30;
70915;PMS5003;58557;50.982;-3.222;2022-09-21T01:04:32;32;30;
70915;PMS5003;58557;50.982;-3.222;2022-09-21T01:06:58;26;24;
70915;PMS5003;58557;50.982;-3.222;2022-09-21T01:09:17;31;28;
70915;PMS5003;58557;50.982;-3.222;2022-09-21T01:11:45;39;32;
70915;PMS5003;58557;50.982;-3.222;2022-09-21T01:14:12;33;31;
70915;PMS5003;58557;50.982;-3.222;2022-09-21T01:16:34;32;31;
70915;PMS5003;58557;50.982;-3.222;2022-09-21T01:19:00;32;32;
70915;PMS5003;58557;50.982;-3.222;2022-09-21T01:21:30;35;30;
70915;PMS5003;58557;50.982;-3.222;2022-09-21T01:26:19;34;33;
70915;PMS5003;58557;50.982;-3.222;2022-09-21T01:31:06;38;33;
70915;PMS5003;58557;50.982;-3.222;2022-09-21T01:33:33;34;32;
70915;PMS5003;58557;50.982;-3.222;2022-09-21T01:35:58;37;35;
70915;PMS5003;58557;50.982;-3.222;2022-09-21T01:38:24;38;34;
70915;PMS5003;58557;50.982;-3.222;2022-09-21T01:40:49;31;28;
70915;PMS5003;58557;50.982;-3.222;2022-09-21T01:43:17;39;37;
70915;PMS5003;58557;50.982;-3.222;2022-09-21T01:45:42;37;31;
70915;PMS5003;58557;50.982;-3.222;2022-09-21T01:48:05;37;34;
70915;PMS5003;58557;50.982;-3.222;2022-09-21T01:50:33;39;34;
70915;PMS5003;58557;50.982;-3.222;2022-09-21T01:52:58;40;37;
70915;PMS5003;58557;50.982;-3.222;2022-09-21T01:55:23;33;31;
70915;PMS5003;58557;50.982;-3.222;2022-09-21T01:57:49;37;33;
70915;PMS5003;58557;50.982;-3.222;2022-09-21T02:00:14;34;34;
70915;PMS5003;58557;50.982;-3.222;2022-09-21T02:02:40;40;38;
70915;PMS5003;58557;50.982;-3.222;2022-09-21T02:05:05;40;33;
70915;PMS5003;58557;50.982;-3.222;2022-09-21T02:07:30;42;38;
70915;PMS5003;58557;50.982;-3.222;2022-09-21T02:09:55;41;38;
70915;PMS5003;58557;50.982;-3.222;2022-09-21T02:12:21;35;35;
70915;PMS5003;58557;50.982;-3.222;2022-09-21T02:14:46;38;37;
70915;PMS5003;58557;50.982;-3.222;2022-09-21T02:17:17;39;37;
70915;PMS5003;58557;50.982;-3.222;2022-09-21T02:19:40;38;31;
70915;PMS5003;58557;50.982;-3.222;2022-09-21T02:22:08;33;30;
70915;PMS5003;58557;50.982;-3.222;2022-09-21T02:24:34;39;35;
70915;PMS5003;58557;50.982;-3.222;2022-09-21T02:26:56;30;28;
70915;PMS5003;58557;50.982;-3.222;2022-09-21T02:29:20;33;31;
70915;PMS5003;58557;50.982;-3.222;2022-09-21T02:31:46;43;38;
70915;PMS5003;58557;50.982;-3.222;2022-09-21T02:34:13;34;32;
70915;PMS5003;58557;50.982;-3.222;2022-09-21T02:36:37;41;35;
70915;PMS5003;58557;50.982;-3.222;2022-09-21T02:39:03;35;35;
70915;PMS5003;58557;50.982;-3.222;2022-09-21T02:41:27;37;33;
70915;PMS5003;58557;50.982;-3.222;2022-09-21T02:43:57;37;32;
70915;PMS5003;58557;50.982;-3.222;2022-09-21T02:46:18;39;35;
70915;PMS5003;58557;50.982;-3.222;2022-09-21T02:48:44;38;33;
70915;PMS5003;58557;50.982;-3.222;2022-09-21T02:51:08;40;35;
70915;PMS5003;58557;50.982;-3.222;2022-09-21T02:53:38;37;30;
70915;PMS5003;58557;50.982;-3.222;2022-09-21T02:55:59;37;34;
70915;PMS5003;58557;50.982;-3.222;2022-09-21T02:58:24;41;35;
70915;PMS5003;58557;50.982;-3.222;2022-09-21T03:00:50;35;34;
70915;PMS5003;58557;50.982;-3.222;2022-09-21T03:03:21;40;38;
70915;PMS5003;58557;50.982;-3.222;2022-09-21T03:05:45;43;39;
70915;PMS5003;58557;50.982;-3.222;2022-09-21T03:08:05;40;37;
70915;PMS5003;58557;50.982;-3.222;2022-09-21T03:10:31;43;41;
70915;PMS5003;58557;50.982;-3.222;2022-09-21T03:13:02;44;38;
70915;PMS5003;58557;50.982;-3.222;2022-09-21T03:15:28;45;45;
70915;PMS5003;58557;50.982;-3.222;2022-09-21T03:17:51;50;46;
70915;PMS5003;58557;50.982;-3.222;2022-09-21T03:20:19;47;46;
70915;PMS5003;58557;50.982;-3.222;2022-09-21T03:22:39;53;48;
70915;PMS5003;58557;50.982;-3.222;2022-09-21T03:25:05;53;46;
70915;PMS5003;58557;50.982;-3.222;2022-09-21T03:27:29;47;45;
70915;PMS5003;58557;50.982;-3.222;2022-09-21T03:30:00;43;39;
70915;PMS5003;58557;50.982;-3.222;2022-09-21T03:32:20;51;49;
70915;PMS5003;58557;50.982;-3.222;2022-09-21T03:34:51;44;40;
70915;PMS5003;58557;50.982;-3.222;2022-09-21T03:37:12;47;43;
70915;PMS5003;58557;50.982;-3.222;2022-09-21T03:39:37;44;40;
70915;PMS5003;58557;50.982;-3.222;2022-09-21T03:42:02;43;38;
70915;PMS5003;58557;50.982;-3.222;2022-09-21T03:44:28;40;38;
70915;PMS5003;58557;50.982;-3.222;2022-09-21T03:46:53;52;48;
70915;PMS5003;58557;50.982;-3.222;2022-09-21T03:49:20;42;41;
70915;PMS5003;58557;50.982;-3.222;2022-09-21T03:51:44;40;38;
70915;PMS5003;58557;50.982;-3.222;2022-09-21T03:54:10;45;42;
70915;PMS5003;58557;50.982;-3.222;2022-09-21T03:56:40;45;44;
70915;PMS5003;58557;50.982;-3.222;2022-09-21T03:59:05;51;46;
70915;PMS5003;58557;50.982;-3.222;2022-09-21T04:01:25;52;46;
70915;PMS5003;58557;50.982;-3.222;2022-09-21T04:03:56;44;41;
70915;PMS5003;58557;50.982;-3.222;2022-09-21T04:06:21;45;44;
70915;PMS5003;58557;50.982;-3.222;2022-09-21T04:08:42;43;42;
70915;PMS5003;58557;50.982;-3.222;2022-09-21T04:11:08;52;49;
70915;PMS5003;58557;50.982;-3.222;2022-09-21T04:13:33;47;46;
70915;PMS5003;58557;50.982;-3.222;2022-09-21T04:16:04;51;44;
70915;PMS5003;58557;50.982;-3.222;2022-09-21T04:18:24;51;49;
70915;PMS5003;58557;50.982;-3.222;2022-09-21T04:20:55;48;42;
70915;PMS5003;58557;50.982;-3.222;2022-09-21T04:23:16;43;42;
70915;PMS5003;58557;50.982;-3.222;2022-09-21T04:25:42;43;42;
70915;PMS5003;58557;50.982;-3.222;2022-09-21T04:28:07;38;36;
70915;PMS5003;58557;50.982;-3.222;2022-09-21T04:30:37;37;36;
70915;PMS5003;58557;50.982;-3.222;2022-09-21T04:33:03;45;45;
70915;PMS5003;58557;50.982;-3.222;2022-09-21T04:35:23;40;38;
70915;PMS5003;58557;50.982;-3.222;2022-09-21T04:37:49;48;42;
70915;PMS5003;58557;50.982;-3.222;2022-09-21T04:40:14;47;42;
70915;PMS5003;58557;50.982;-3.222;2022-09-21T04:42:39;50;46;
70915;PMS5003;58557;50.982;-3.222;2022-09-21T04:45:06;52;46;
70915;PMS5003;58557;50.982;-3.222;2022-09-21T04:47:30;45;43;
70915;PMS5003;58557;50.982;-3.222;2022-09-21T04:49:56;54;49;
70915;PMS5003;58557;50.982;-3.222;2022-09-21T04:52:21;46;45;
70915;PMS5003;58557;50.982;-3.222;2022-09-21T04:54:52;38;38;
70915;PMS5003;58557;50.982;-3.222;2022-09-21T04:57:17;48;42;
70915;PMS5003;58557;50.982;-3.222;2022-09-21T04:59:38;45;44;
70915;PMS5003;58557;50.982;-3.222;2022-09-21T05:02:03;42;39;
70915;PMS5003;58557;50.982;-3.222;2022-09-21T05:04:33;47;43;
70915;PMS5003;58557;50.982;-3.222;2022-09-21T05:06:56;49;46;
70915;PMS5003;58557;50.982;-3.222;2022-09-21T05:09:19;38;38;
70915;PMS5003;58557;50.982;-3.222;2022-09-21T05:11:50;43;42;
70915;PMS5003;58557;50.982;-3.222;2022-09-21T05:14:10;44;43;
70915;PMS5003;58557;50.982;-3.222;2022-09-21T05:16:40;45;42;
70915;PMS5003;58557;50.982;-3.222;2022-09-21T05:19:01;37;35;
70915;PMS5003;58557;50.982;-3.222;2022-09-21T05:21:32;44;38;
70915;PMS5003;58557;50.982;-3.222;2022-09-21T05:23:57;41;37;
70915;PMS5003;58557;50.982;-3.222;2022-09-21T05:26:22;41;38;
70915;PMS5003;58557;50.982;-3.222;2022-09-21T05:28:43;28;28;
70915;PMS5003;58557;50.982;-3.222;2022-09-21T05:31:11;25;24;
70915;PMS5003;58557;50.982;-3.222;2022-09-21T05:33:34;39;37;
70915;PMS5003;58557;50.982;-3.222;2022-09-21T05:36:02;32;29;
70915;PMS5003;58557;50.982;-3.222;2022-09-21T05:38:26;35;34;
70915;PMS5003;58557;50.982;-3.222;2022-09-21T05:40:51;31;29;
70915;PMS5003;58557;50.982;-3.222;2022-09-21T05:43:17;38;36;
70915;PMS5003;58557;50.982;-3.222;2022-09-21T05:45:43;49;42;
70915;PMS5003;58557;50.982;-3.222;2022-09-21T05:48:10;38;38;
70915;PMS5003;58557;50.982;-3.222;2022-09-21T05:50:37;43;33;
70915;PMS5003;58557;50.982;-3.222;2022-09-21T05:53:01;37;35;
70915;PMS5003;58557;50.982;-3.222;2022-09-21T05:55:35;44;39;
70915;PMS5003;58557;50.982;-3.222;2022-09-21T05:57:50;46;45;
70915;PMS5003;58557;50.982;-3.222;2022-09-21T06:00:16;44;41;
70915;PMS5003;58557;50.982;-3.222;2022-09-21T06:02:48;38;35;
70915;PMS5003;58557;50.982;-3.222;2022-09-21T06:05:06;41;37;
70915;PMS5003;58557;50.982;-3.222;2022-09-21T06:07:35;41;38;
70915;PMS5003;58557;50.982;-3.222;2022-09-21T06:09:56;44;40;
70915;PMS5003;58557;50.982;-3.222;2022-09-21T06:12:21;41;38;
70915;PMS5003;58557;50.982;-3.222;2022-09-21T06:14:47;45;43;
70915;PMS5003;58557;50.982;-3.222;2022-09-21T06:17:12;45;44;
70915;PMS5003;58557;50.982;-3.222;2022-09-21T06:19:42;46;43;
70915;PMS5003;58557;50.982;-3.222;2022-09-21T06:22:07;42;39;
70915;PMS5003;58557;50.982;-3.222;2022-09-21T06:24:32;37;35;
70915;PMS5003;58557;50.982;-3.222;2022-09-21T06:26:53;37;35;
70915;PMS5003;58557;50.982;-3.222;2022-09-21T06:29:18;37;34;
70915;PMS5003;58557;50.982;-3.222;2022-09-21T06:31:43;43;42;
70915;PMS5003;58557;50.982;-3.222;2022-09-21T06:34:08;44;40;
70915;PMS5003;58557;50.982;-3.222;2022-09-21T06:36:34;40;37;
70915;PMS5003;58557;50.982;-3.222;2022-09-21T06:39:00;44;36;
70915;PMS5003;58557;50.982;-3.222;2022-09-21T06:41:25;40;37;
70915;PMS5003;58557;50.982;-3.222;2022-09-21T06:43:56;28;27;
70915;PMS5003;58557;50.982;-3.222;2022-09-21T06:46:16;39;36;
70915;PMS5003;58557;50.982;-3.222;2022-09-21T06:48:41;37;35;
70915;PMS5003;58557;50.982;-3.222;2022-09-21T06:51:08;31;28;
70915;PMS5003;58557;50.982;-3.222;2022-09-21T06:53:32;32;30;
70915;PMS5003;58557;50.982;-3.222;2022-09-21T06:56:00;32;30;
70915;PMS5003;58557;50.982;-3.222;2022-09-21T06:58:22;36;33;
70915;PMS5003;58557;50.982;-3.222;2022-09-21T07:00:47;38;33;
70915;PMS5003;58557;50.982;-3.222;2022-09-21T07:03:13;44;41;
70915;PMS5003;58557;50.982;-3.222;2022-09-21T07:05:43;33;30;
70915;PMS5003;58557;50.982;-3.222;2022-09-21T07:08:08;37;34;
70915;PMS5003;58557;50.982;-3.222;2022-09-21T07:10:30;42;36;
70915;PMS5003;58557;50.982;-3.222;2022-09-21T07:12:54;39;35;
70915;PMS5003;58557;50.982;-3.222;2022-09-21T07:15:19;38;35;
70915;PMS5003;58557;50.982;-3.222;2022-09-21T07:17:45;33;29;
70915;PMS5003;58557;50.982;-3.222;2022-09-21T07:20:16;37;36;
70915;PMS5003;58557;50.982;-3.222;2022-09-21T07:22:36;35;35;
70915;PMS5003;58557;50.982;-3.222;2022-09-21T07:25:02;39;30;
70915;PMS5003;58557;50.982;-3.222;2022-09-21T07:27:28;37;36;
70915;PMS5003;58557;50.982;-3.222;2022-09-21T07:29:52;29;26;
70915;PMS5003;58557;50.982;-3.222;2022-09-21T07:32:23;35;34;
70915;PMS5003;58557;50.982;-3.222;2022-09-21T07:34:43;33;33;
70915;PMS5003;58557;50.982;-3.222;2022-09-21T07:37:09;29;28;
70915;PMS5003;58557;50.982;-3.222;2022-09-21T07:39:34;29;29;
70915;PMS5003;58557;50.982;-3.222;2022-09-21T07:42:00;25;25;
70915;PMS5003;58557;50.982;-3.222;2022-09-21T07:44:25;26;25;
70915;PMS5003;58557;50.982;-3.222;2022-09-21T07:46:50;26;23;
70915;PMS5003;58557;50.982;-3.222;2022-09-21T07:49:21;26;24;
70915;PMS5003;58557;50.982;-3.222;2022-09-21T07:51:41;25;24;
70915;PMS5003;58557;50.982;-3.222;2022-09-21T07:54:08;24;24;
70915;PMS5003;58557;50.982;-3.222;2022-09-21T07:56:31;23;23;
70915;PMS5003;58557;50.982;-3.222;2022-09-21T07:59:02;24;22;
70915;PMS5003;58557;50.982;-3.222;2022-09-21T08:01:25;19;19;
70915;PMS5003;58557;50.982;-3.222;2022-09-21T08:03:48;26;23;
70915;PMS5003;58557;50.982;-3.222;2022-09-21T08:06:14;18;17;
70915;PMS5003;58557;50.982;-3.222;2022-09-21T08:08:44;19;18;
70915;PMS5003;58557;50.982;-3.222;2022-09-21T08:11:05;22;18;
70915;PMS5003;58557;50.982;-3.222;2022-09-21T08:13:29;21;17;
70915;PMS5003;58557;50.982;-3.222;2022-09-21T08:15:57;23;23;
70915;PMS5003;58557;50.982;-3.222;2022-09-21T08:18:20;19;16;
70915;PMS5003;58557;50.982;-3.222;2022-09-21T08:23:11;25;22;
70915;PMS5003;58557;50.982;-3.222;2022-09-21T08:25:37;20;20;
70915;PMS5003;58557;50.982;-3.222;2022-09-21T08:28:07;21;20;
70915;PMS5003;58557;50.982;-3.222;2022-09-21T08:30:33;25;25;
70915;PMS5003;58557;50.982;-3.222;2022-09-21T08:32:58;24;20;
70915;PMS5003;58557;50.982;-3.222;2022-09-21T08:35:18;20;20;
70915;PMS5003;58557;50.982;-3.222;2022-09-21T08:37:43;21;17;
70915;PMS5003;58557;50.982;-3.222;2022-09-21T08:40:09;18;18;
70915;PMS5003;58557;50.982;-3.222;2022-09-21T08:42:39;21;20;
70915;PMS5003;58557;50.982;-3.222;2022-09-21T08:45:09;22;21;
70915;PMS5003;58557;50.982;-3.222;2022-09-21T08:47:27;21;18;
70915;PMS5003;58557;50.982;-3.222;2022-09-21T08:49:52;20;18;
70915;PMS5003;58557;50.982;-3.222;2022-09-21T08:52:17;20;20;
70915;PMS5003;58557;50.982;-3.222;2022-09-21T08:54:48;20;15;
70915;PMS5003;58557;50.982;-3.222;2022-09-21T08:57:12;15;15;
70915;PMS5003;58557;50.982;-3.222;2022-09-21T08:59:38;19;16;
70915;PMS5003;58557;50.982;-3.222;2022-09-21T09:02:00;16;15;
70915;PMS5003;58557;50.982;-3.222;2022-09-21T09:04:38;12;10;
70915;PMS5003;58557;50.982;-3.222;2022-09-21T09:06:50;10;10;
70915;PMS5003;58557;50.982;-3.222;2022-09-21T09:09:21;10;10;
70915;PMS5003;58557;50.982;-3.222;2022-09-21T09:11:46;11;8;
70915;PMS5003;58557;50.982;-3.222;2022-09-21T09:14:11;13;12;
70915;PMS5003;58557;50.982;-3.222;2022-09-21T09:16:33;11;11;
70915;PMS5003;58557;50.982;-3.222;2022-09-21T09:18:58;13;11;
70915;PMS5003;58557;50.982;-3.222;2022-09-21T09:21:28;12;11;
70915;PMS5003;58557;50.982;-3.222;2022-09-21T09:23:48;7;7;
70915;PMS5003;58557;50.982;-3.222;2022-09-21T09:26:14;10;8;
70915;PMS5003;58557;50.982;-3.222;2022-09-21T09:28:45;7;7;
70915;PMS5003;58557;50.982;-3.222;2022-09-21T09:31:10;6;6;
70915;PMS5003;58557;50.982;-3.222;2022-09-21T09:33:35;6;6;
70915;PMS5003;58557;50.982;-3.222;2022-09-21T09:35:57;9;8;
70915;PMS5003;58557;50.982;-3.222;2022-09-21T09:38:22;7;7;
70915;PMS5003;58557;50.982;-3.222;2022-09-21T09:40:50;4;4;
70915;PMS5003;58557;50.982;-3.222;2022-09-21T09:43:11;5;4;
70915;PMS5003;58557;50.982;-3.222;2022-09-21T09:45:39;6;6;
70915;PMS5003;58557;50.982;-3.222;2022-09-21T09:48:07;4;4;
70915;PMS5003;58557;50.982;-3.222;2022-09-21T09:50:28;5;5;
70915;PMS5003;58557;50.982;-3.222;2022-09-21T09:52:54;6;6;
70915;PMS5003;58557;50.982;-3.222;2022-09-21T09:55:19;5;5;
70915;PMS5003;58557;50.982;-3.222;2022-09-21T09:57:44;6;6;
70915;PMS5003;58557;50.982;-3.222;2022-09-21T10:00:12;4;3;
70915;PMS5003;58557;50.982;-3.222;2022-09-21T10:05:02;3;3;
70915;PMS5003;58557;50.982;-3.222;2022-09-21T10:09:51;2;2;
70915;PMS5003;58557;50.982;-3.222;2022-09-21T10:12:18;6;5;
70915;PMS5003;58557;50.982;-3.222;2022-09-21T10:17:11;1;1;
70915;PMS5003;58557;50.982;-3.222;2022-09-21T10:19:39;3;3;
70915;PMS5003;58557;50.982;-3.222;2022-09-21T10:22:04;4;3;
70915;PMS5003;58557;50.982;-3.222;2022-09-21T10:24:30;4;4;
70915;PMS5003;58557;50.982;-3.222;2022-09-21T10:27:00;4;4;
70915;PMS5003;58557;50.982;-3.222;2022-09-21T10:29:17;3;3;
70915;PMS5003;58557;50.982;-3.222;2022-09-21T10:31:53;2;2;
70915;PMS5003;58557;50.982;-3.222;2022-09-21T10:34:11;5;4;
70915;PMS5003;58557;50.982;-3.222;2022-09-21T10:36:33;2;2;
70915;PMS5003;58557;50.982;-3.222;2022-09-21T10:41:28;3;2;
70915;PMS5003;58557;50.982;-3.222;2022-09-21T10:43:50;5;5;
70915;PMS5003;58557;50.982;-3.222;2022-09-21T10:46:15;3;3;
70915;PMS5003;58557;50.982;-3.222;2022-09-21T10:48:45;5;5;
70915;PMS5003;58557;50.982;-3.222;2022-09-21T10:51:06;4;4;
70915;PMS5003;58557;50.982;-3.222;2022-09-21T10:53:32;5;5;
70915;PMS5003;58557;50.982;-3.222;2022-09-21T10:55:58;2;2;
70915;PMS5003;58557;50.982;-3.222;2022-09-21T10:58:22;3;3;
70915;PMS5003;58557;50.982;-3.222;2022-09-21T11:00:48;3;3;
70915;PMS5003;58557;50.982;-3.222;2022-09-21T11:03:26;3;3;
70915;PMS5003;58557;50.982;-3.222;2022-09-21T11:05:44;1;1;
70915;PMS5003;58557;50.982;-3.222;2022-09-21T11:08:06;4;4;
70915;PMS5003;58557;50.982;-3.222;2022-09-21T11:10:32;3;3;
70915;PMS5003;58557;50.982;-3.222;2022-09-21T11:13:01;4;4;
70915;PMS5003;58557;50.982;-3.222;2022-09-21T11:15:26;3;3;
70915;PMS5003;58557;50.982;-3.222;2022-09-21T11:17:48;6;5;
70915;PMS5003;58557;50.982;-3.222;2022-09-21T11:20:16;6;6;
70915;PMS5003;58557;50.982;-3.222;2022-09-21T11:22:41;4;3;
70915;PMS5003;58557;50.982;-3.222;2022-09-21T11:25:05;4;4;
70915;PMS5003;58557;50.982;-3.222;2022-09-21T11:27:30;6;5;
70915;PMS5003;58557;50.982;-3.222;2022-09-21T11:30:03;2;2;
70915;PMS5003;58557;50.982;-3.222;2022-09-21T11:32:25;4;4;
70915;PMS5003;58557;50.982;-3.222;2022-09-21T11:34:51;2;2;
70915;PMS5003;58557;50.982;-3.222;2022-09-21T11:37:14;3;3;
70915;PMS5003;58557;50.982;-3.222;2022-09-21T11:39:49;2;2;
70915;PMS5003;58557;50.982;-3.222;2022-09-21T11:42:06;8;8;
70915;PMS5003;58557;50.982;-3.222;2022-09-21T11:44:32;4;4;
70915;PMS5003;58557;50.982;-3.222;2022-09-21T11:46:55;4;4;
70915;PMS5003;58557;50.982;-3.222;2022-09-21T11:49:24;4;4;
70915;PMS5003;58557;50.982;-3.222;2022-09-21T11:51:49;7;6;
70915;PMS5003;58557;50.982;-3.222;2022-09-21T11:54:19;2;2;
70915;PMS5003;58557;50.982;-3.222;2022-09-21T11:56:37;10;10;
70915;PMS5003;58557;50.982;-3.222;2022-09-21T11:59:07;3;3;
70915;PMS5003;58557;50.982;-3.222;2022-09-21T12:06:22;3;3;
70915;PMS5003;58557;50.982;-3.222;2022-09-21T12:08:48;4;4;
70915;PMS5003;58557;50.982;-3.222;2022-09-21T12:11:10;3;3;
70915;PMS5003;58557;50.982;-3.222;2022-09-21T12:13:35;2;2;
70915;PMS5003;58557;50.982;-3.222;2022-09-21T12:16:01;2;2;
70915;PMS5003;58557;50.982;-3.222;2022-09-21T12:18:27;5;5;
70915;PMS5003;58557;50.982;-3.222;2022-09-21T12:20:52;5;5;
70915;PMS5003;58557;50.982;-3.222;2022-09-21T12:23:17;5;4;
70915;PMS5003;58557;50.982;-3.222;2022-09-21T12:25:43;6;6;
70915;PMS5003;58557;50.982;-3.222;2022-09-21T12:28:09;4;4;
70915;PMS5003;58557;50.982;-3.222;2022-09-21T12:30:32;3;3;
70915;PMS5003;58557;50.982;-3.222;2022-09-21T12:33:00;5;5;
70915;PMS5003;58557;50.982;-3.222;2022-09-21T12:35:25;5;4;
70915;PMS5003;58557;50.982;-3.222;2022-09-21T12:37:50;5;5;
70915;PMS5003;58557;50.982;-3.222;2022-09-21T12:40:16;4;3;
70915;PMS5003;58557;50.982;-3.222;2022-09-21T12:42:40;5;5;
70915;PMS5003;58557;50.982;-3.222;2022-09-21T12:45:11;7;5;
70915;PMS5003;58557;50.982;-3.222;2022-09-21T12:47:42;7;6;
70915;PMS5003;58557;50.982;-3.222;2022-09-21T12:49:58;7;7;
70915;PMS5003;58557;50.982;-3.222;2022-09-21T12:52:23;6;4;
70915;PMS5003;58557;50.982;-3.222;2022-09-21T12:54:49;6;5;
70915;PMS5003;58557;50.982;-3.222;2022-09-21T12:57:15;7;7;
70915;PMS5003;58557;50.982;-3.222;2022-09-21T12:59:40;6;6;
70915;PMS5003;58557;50.982;-3.222;2022-09-21T13:02:11;5;5;
70915;PMS5003;58557;50.982;-3.222;2022-09-21T13:04:35;8;6;
70915;PMS5003;58557;50.982;-3.222;2022-09-21T13:09:21;5;5;
70915;PMS5003;58557;50.982;-3.222;2022-09-21T13:11:49;5;5;
70915;PMS5003;58557;50.982;-3.222;2022-09-21T13:14:17;4;4;
70915;PMS5003;58557;50.982;-3.222;2022-09-21T13:16:38;6;6;
70915;PMS5003;58557;50.982;-3.222;2022-09-21T13:19:04;4;2;
70915;PMS5003;58557;50.982;-3.222;2022-09-21T13:21:29;4;4;
70915;PMS5003;58557;50.982;-3.222;2022-09-21T13:23:56;4;4;
70915;PMS5003;58557;50.982;-3.222;2022-09-21T13:26:30;5;5;
70915;PMS5003;58557;50.982;-3.222;2022-09-21T13:33:37;4;4;
70915;PMS5003;58557;50.982;-3.222;2022-09-21T13:36:04;3;2;
70915;PMS5003;58557;50.982;-3.222;2022-09-21T13:38:29;3;3;
70915;PMS5003;58557;50.982;-3.222;2022-09-21T13:40:56;3;3;
70915;PMS5003;58557;50.982;-3.222;2022-09-21T13:43:20;3;3;
70915;PMS5003;58557;50.982;-3.222;2022-09-21T13:45:49;3;2;
70915;PMS5003;58557;50.982;-3.222;2022-09-21T13:48:12;3;3;
70915;PMS5003;58557;50.982;-3.222;2022-09-21T13:50:37;3;3;
70915;PMS5003;58557;50.982;-3.222;2022-09-21T13:53:02;2;2;
70915;PMS5003;58557;50.982;-3.222;2022-09-21T13:55:32;2;2;
70915;PMS5003;58557;50.982;-3.222;2022-09-21T13:57:52;1;1;
70915;PMS5003;58557;50.982;-3.222;2022-09-21T14:00:24;1;1;
70915;PMS5003;58557;50.982;-3.222;2022-09-21T14:02:43;3;3;
70915;PMS5003;58557;50.982;-3.222;2022-09-21T14:07:34;6;4;
70915;PMS5003;58557;50.982;-3.222;2022-09-21T14:10:00;4;4;
70915;PMS5003;58557;50.982;-3.222;2022-09-21T14:12:26;4;4;
70915;PMS5003;58557;50.982;-3.222;2022-09-21T14:24:33;3;3;
70915;PMS5003;58557;50.982;-3.222;2022-09-21T14:27:05;4;4;
70915;PMS5003;58557;50.982;-3.222;2022-09-21T14:29:26;3;3;
70915;PMS5003;58557;50.982;-3.222;2022-09-21T14:31:51;3;3;
70915;PMS5003;58557;50.982;-3.222;2022-09-21T14:34:16;3;3;
70915;PMS5003;58557;50.982;-3.222;2022-09-21T14:36:41;3;2;
70915;PMS5003;58557;50.982;-3.222;2022-09-21T14:39:12;2;2;
70915;PMS5003;58557;50.982;-3.222;2022-09-21T14:41:36;3;3;
70915;PMS5003;58557;50.982;-3.222;2022-09-21T14:43:57;3;3;
70915;PMS5003;58557;50.982;-3.222;2022-09-21T14:46:38;3;3;
70915;PMS5003;58557;50.982;-3.222;2022-09-21T14:48:58;4;4;
70915;PMS5003;58557;50.982;-3.222;2022-09-21T14:51:15;4;4;
70915;PMS5003;58557;50.982;-3.222;2022-09-21T14:58:35;5;5;
70915;PMS5003;58557;50.982;-3.222;2022-09-21T15:00:56;4;4;
70915;PMS5003;58557;50.982;-3.222;2022-09-21T15:05:48;5;5;
70915;PMS5003;58557;50.982;-3.222;2022-09-21T15:08:19;5;5;
70915;PMS5003;58557;50.982;-3.222;2022-09-21T15:13:17;6;6;
70915;PMS5003;58557;50.982;-3.222;2022-09-21T15:15:32;8;8;
70915;PMS5003;58557;50.982;-3.222;2022-09-21T15:17:56;5;5;
70915;PMS5003;58557;50.982;-3.222;2022-09-21T15:20:21;3;3;
70915;PMS5003;58557;50.982;-3.222;2022-09-21T15:22:52;6;5;
70915;PMS5003;58557;50.982;-3.222;2022-09-21T15:25:12;4;4;
70915;PMS5003;58557;50.982;-3.222;2022-09-21T15:27:43;9;7;
70915;PMS5003;58557;50.982;-3.222;2022-09-21T15:32:32;5;5;
70915;PMS5003;58557;50.982;-3.222;2022-09-21T15:34:57;5;5;
70915;PMS5003;58557;50.982;-3.222;2022-09-21T15:37:19;7;7;
70915;PMS5003;58557;50.982;-3.222;2022-09-21T15:39:45;11;8;
70915;PMS5003;58557;50.982;-3.222;2022-09-21T15:42:14;5;5;
70915;PMS5003;58557;50.982;-3.222;2022-09-21T15:44:36;7;7;
70915;PMS5003;58557;50.982;-3.222;2022-09-21T15:47:07;6;6;
70915;PMS5003;58557;50.982;-3.222;2022-09-21T15:49:33;4;4;
70915;PMS5003;58557;50.982;-3.222;2022-09-21T15:51:53;6;6;
70915;PMS5003;58557;50.982;-3.222;2022-09-21T15:54:23;6;6;
70915;PMS5003;58557;50.982;-3.222;2022-09-21T15:56:49;6;6;
70915;PMS5003;58557;50.982;-3.222;2022-09-21T15:59:11;5;4;
70915;PMS5003;58557;50.982;-3.222;2022-09-21T16:01:37;7;7;
70915;PMS5003;58557;50.982;-3.222;2022-09-21T16:04:01;6;5;
70915;PMS5003;58557;50.982;-3.222;2022-09-21T16:06:27;8;7;
70915;PMS5003;58557;50.982;-3.222;2022-09-21T16:08:52;6;6;
70915;PMS5003;58557;50.982;-3.222;2022-09-21T16:11:18;6;6;
70915;PMS5003;58557;50.982;-3.222;2022-09-21T16:13:44;6;5;
70915;PMS5003;58557;50.982;-3.222;2022-09-21T16:16:09;6;6;
70915;PMS5003;58557;50.982;-3.222;2022-09-21T16:18:40;9;6;
70915;PMS5003;58557;50.982;-3.222;2022-09-21T16:21:07;7;7;
70915;PMS5003;58557;50.982;-3.222;2022-09-21T16:23:26;7;7;
70915;PMS5003;58557;50.982;-3.222;2022-09-21T16:25:57;11;9;
70915;PMS5003;58557;50.982;-3.222;2022-09-21T16:28:26;5;5;
70915;PMS5003;58557;50.982;-3.222;2022-09-21T16:30:47;8;8;
70915;PMS5003;58557;50.982;-3.222;2022-09-21T16:35:37;4;4;
70915;PMS5003;58557;50.982;-3.222;2022-09-21T16:37:59;9;9;
70915;PMS5003;58557;50.982;-3.222;2022-09-21T16:40:24;11;9;
70915;PMS5003;58557;50.982;-3.222;2022-09-21T16:42:49;5;5;
70915;PMS5003;58557;50.982;-3.222;2022-09-21T16:45:16;7;6;
70915;PMS5003;58557;50.982;-3.222;2022-09-21T16:47:45;6;6;
70915;PMS5003;58557;50.982;-3.222;2022-09-21T16:50:11;7;5;
70915;PMS5003;58557;50.982;-3.222;2022-09-21T16:52:32;5;5;
70915;PMS5003;58557;50.982;-3.222;2022-09-21T16:55:03;5;5;
70915;PMS5003;58557;50.982;-3.222;2022-09-21T16:57:23;4;4;